Terminal Aerodrome Forecast
Issued by NWS

Home | Current Version | Previous Version | Text Only | Print | Product List | Glossary On
Versions: 1 2 3 4 5 6 7 8 9 10 11 12 13 14 15 16
000
FTUS45 KGJT 262102 AAA
TAFRIL
TAF AMD
KRIL 262102Z 2621/2718 32020G30KT P6SM VCTS SCT080CB BKN200
     FM262200 30010G18KT P6SM VCTS SCT080CB BKN200
      TEMPO 2623/2703 VRB15G30KT TS BKN080CB
     FM270300 34007KT P6SM FEW100 SCT200
     FM270500 VRB04KT P6SM FEW200=

USA.gov is the U.S. government's official web portal to all federal, state and local government web resources and services.